createdAt,value
2023-03-06T00:00:03.500Z,428.05
2023-03-06T00:01:03.496Z,409.33
2023-03-06T00:02:03.467Z,391.48
2023-03-06T00:03:03.472Z,389.41
2023-03-06T00:04:03.537Z,371.59
2023-03-06T00:05:03.429Z,361.72
2023-03-06T00:06:03.487Z,350.47
2023-03-06T00:07:03.409Z,359.33
2023-03-06T00:08:03.399Z,384.68
2023-03-06T00:09:03.401Z,402.87
2023-03-06T00:10:03.385Z,413.92
2023-03-06T00:11:03.370Z,416.25
2023-03-06T00:12:03.353Z,413.92
2023-03-06T00:13:03.347Z,413.14
2023-03-06T00:14:03.315Z,402.63
2023-03-06T00:15:05.539Z,392.17
2023-03-06T00:16:03.369Z,387.37
2023-03-06T00:17:03.298Z,382.46
2023-03-06T00:18:03.283Z,373.29
2023-03-06T00:19:03.262Z,360.13
2023-03-06T00:20:03.267Z,349.35
2023-03-06T00:21:03.261Z,333.32
2023-03-06T00:22:03.228Z,331.29
2023-03-06T00:23:03.214Z,326.01
2023-03-06T00:24:03.196Z,314.10
2023-03-06T00:25:03.178Z,308.76
2023-03-06T00:26:03.173Z,316.84
2023-03-06T00:27:03.151Z,325.03
2023-03-06T00:28:03.174Z,319.01
2023-03-06T00:29:03.124Z,336.06
2023-03-06T00:30:03.155Z,337.10
2023-03-06T00:31:03.139Z,341.32
2023-03-06T00:32:03.124Z,337.10
2023-03-06T00:33:03.083Z,326.33
2023-03-06T00:34:03.062Z,317.15
2023-03-06T00:35:03.089Z,326.98
2023-03-06T00:36:03.039Z,335.03
2023-03-06T00:37:03.025Z,338.85
2023-03-06T00:38:03.014Z,336.41
2023-03-06T00:39:02.999Z,349.72
2023-03-06T00:40:02.981Z,361.32
2023-03-06T00:41:02.967Z,354.27
2023-03-06T00:42:02.979Z,344.20
2023-03-06T00:43:02.944Z,344.93
2023-03-06T00:44:02.941Z,345.29
2023-03-06T00:45:02.922Z,354.66
2023-03-06T00:46:02.932Z,353.12
2023-03-06T00:47:02.913Z,352.36
2023-03-06T00:48:02.885Z,360.92
2023-03-06T00:49:02.869Z,360.13
2023-03-06T00:50:02.857Z,365.77
2023-03-06T00:51:02.855Z,358.15
2023-03-06T00:52:02.859Z,342.40
2023-03-06T00:53:02.876Z,327.64
2023-03-06T00:54:02.882Z,318.39
2023-03-06T00:55:02.806Z,314.40
2023-03-06T00:56:02.783Z,321.52
2023-03-06T00:57:02.806Z,325.36
2023-03-06T00:58:02.771Z,330.96
2023-03-06T00:59:02.739Z,332.64
2023-03-06T01:00:02.737Z,330.29
2023-03-06T01:01:02.800Z,323.11
2023-03-06T01:02:02.869Z,315.31
2023-03-06T01:03:02.696Z,304.17
2023-03-06T01:04:02.676Z,299.70
2023-03-06T01:05:02.737Z,294.57
2023-03-06T01:06:02.645Z,295.10
2023-03-06T01:07:02.682Z,296.98
2023-03-06T01:08:02.624Z,297.25
2023-03-06T01:09:02.636Z,296.17
2023-03-06T01:10:02.621Z,306.16
2023-03-06T01:11:02.581Z,311.41
2023-03-06T01:12:02.598Z,319.32
2023-03-06T01:13:02.563Z,323.75
2023-03-06T01:14:02.554Z,324.39
2023-03-06T01:15:02.558Z,318.70
2023-03-06T01:16:02.578Z,323.11
2023-03-06T01:17:02.540Z,315.01
2023-03-06T01:18:02.507Z,318.08
2023-03-06T01:19:02.482Z,311.11
2023-03-06T01:20:02.503Z,302.20
2023-03-06T01:21:02.474Z,301.08
2023-03-06T01:22:02.465Z,299.70
2023-03-06T01:23:02.439Z,295.90
2023-03-06T01:24:02.439Z,294.04
2023-03-06T01:25:02.435Z,293.25
2023-03-06T01:26:02.412Z,297.25
2023-03-06T01:27:02.405Z,295.10
2023-03-06T01:28:02.391Z,284.82
2023-03-06T01:29:02.354Z,273.16
2023-03-06T01:30:02.359Z,272.47
2023-03-06T01:31:02.362Z,272.93
2023-03-06T01:32:02.526Z,259.70
2023-03-06T01:33:02.373Z,241.30
2023-03-06T01:34:02.313Z,247.14
2023-03-06T01:35:02.272Z,255.84
2023-03-06T01:36:02.262Z,251.32
2023-03-06T01:37:02.251Z,242.01
2023-03-06T01:38:02.258Z,244.73
2023-03-06T01:39:02.267Z,267.57
2023-03-06T01:40:02.230Z,283.34
2023-03-06T01:41:02.209Z,285.07
2023-03-06T01:42:02.202Z,285.32
2023-03-06T01:43:02.177Z,279.46
2023-03-06T01:44:02.174Z,271.12
2023-03-06T01:45:02.181Z,257.25
2023-03-06T01:46:02.162Z,246.58
2023-03-06T01:47:02.177Z,235.56
2023-03-06T01:48:02.142Z,233.71
2023-03-06T01:49:02.134Z,232.54
2023-03-06T01:50:02.109Z,228.16
2023-03-06T01:51:02.073Z,224.71
2023-03-06T01:52:02.090Z,219.14
2023-03-06T01:53:02.049Z,212.30
2023-03-06T01:54:02.076Z,215.67
2023-03-06T01:55:02.071Z,224.25
2023-03-06T01:56:02.025Z,227.68
2023-03-06T01:57:02.052Z,225.18
2023-03-06T01:58:01.989Z,226.11
2023-03-06T01:59:01.990Z,228.96
2023-03-06T02:00:01.996Z,226.42
2023-03-06T02:01:02.049Z,222.57
2023-03-06T02:02:02.041Z,221.51
2023-03-06T02:03:01.945Z,226.42
2023-03-06T02:04:01.947Z,221.06
2023-03-06T02:05:01.906Z,214.11
2023-03-06T02:06:01.896Z,209.18
2023-03-06T02:07:01.881Z,209.45
2023-03-06T02:08:01.866Z,209.72
2023-03-06T02:09:01.879Z,200.21
2023-03-06T02:10:01.859Z,200.58
2023-03-06T02:11:01.822Z,203.45
2023-03-06T02:12:01.812Z,198.63
2023-03-06T02:13:01.802Z,188.98
2023-03-06T02:14:01.797Z,180.90
2023-03-06T02:15:01.790Z,177.05
2023-03-06T02:16:01.766Z,178.76
2023-03-06T02:17:01.783Z,184.93
2023-03-06T02:18:01.766Z,202.32
2023-03-06T02:19:01.777Z,209.18
2023-03-06T02:20:01.704Z,219.87
2023-03-06T02:21:01.699Z,233.04
2023-03-06T02:22:01.693Z,246.02
2023-03-06T02:23:01.684Z,243.27
2023-03-06T02:24:01.656Z,219.43
2023-03-06T02:25:01.751Z,194.38
2023-03-06T02:26:01.635Z,182.29
2023-03-06T02:27:01.622Z,171.21
2023-03-06T02:28:01.611Z,161.25
2023-03-06T02:29:01.607Z,154.79
2023-03-06T02:30:01.616Z,145.45
2023-03-06T02:31:01.628Z,135.94
2023-03-06T02:32:01.582Z,126.43
2023-03-06T02:33:01.550Z,117.16
2023-03-06T02:34:01.538Z,109.38
2023-03-06T02:35:01.546Z,102.18
2023-03-06T02:36:01.551Z,94.62
2023-03-06T02:37:01.500Z,91.11
2023-03-06T02:38:01.484Z,89.54
2023-03-06T02:39:01.516Z,90.81
2023-03-06T02:40:01.468Z,93.77
2023-03-06T02:41:01.446Z,103.20
2023-03-06T02:42:01.433Z,102.75
2023-03-06T02:43:01.420Z,100.45
2023-03-06T02:44:01.408Z,96.32
2023-03-06T02:45:01.415Z,93.78
2023-03-06T02:46:01.402Z,90.51
2023-03-06T02:47:01.371Z,86.38
2023-03-06T02:48:01.365Z,84.96
2023-03-06T02:49:01.365Z,85.14
2023-03-06T02:50:01.393Z,85.22
2023-03-06T02:51:01.321Z,84.70
2023-03-06T02:52:01.313Z,80.52
2023-03-06T02:53:01.300Z,75.96
2023-03-06T02:54:01.288Z,72.51
2023-03-06T02:55:01.269Z,70.01
2023-03-06T02:56:01.259Z,68.68
2023-03-06T02:57:01.258Z,67.56
2023-03-06T02:58:01.232Z,66.69
2023-03-06T02:59:01.223Z,65.74
2023-03-06T03:00:01.204Z,64.92
2023-03-06T03:01:01.199Z,65.95
2023-03-06T03:02:01.187Z,68.90
2023-03-06T03:03:01.162Z,77.59
2023-03-06T03:04:01.150Z,86.47
2023-03-06T03:05:01.160Z,93.15
2023-03-06T03:06:01.122Z,100.21
2023-03-06T03:07:01.140Z,101.43
2023-03-06T03:08:01.155Z,97.51
2023-03-06T03:09:01.081Z,97.45
2023-03-06T03:10:01.095Z,95.82
2023-03-06T03:11:01.058Z,93.68
2023-03-06T03:12:01.060Z,91.31
2023-03-06T03:13:01.039Z,90.32
2023-03-06T03:14:01.012Z,92.32
2023-03-06T03:15:01.045Z,100.09
2023-03-06T03:16:01.065Z,102.62
2023-03-06T03:17:00.998Z,101.12
2023-03-06T03:18:00.964Z,98.31
2023-03-06T03:19:00.956Z,93.93
2023-03-06T03:20:00.958Z,94.21
2023-03-06T03:21:00.943Z,92.02
2023-03-06T03:22:00.918Z,89.93
2023-03-06T03:23:00.933Z,93.26
2023-03-06T03:24:00.885Z,97.17
2023-03-06T03:25:00.876Z,99.73
2023-03-06T03:26:00.894Z,100.15
2023-03-06T03:27:00.857Z,103.07
2023-03-06T03:28:00.843Z,103.07
2023-03-06T03:29:00.829Z,103.20
2023-03-06T03:30:00.852Z,99.85
2023-03-06T03:31:00.836Z,96.71
2023-03-06T03:32:00.800Z,95.95
2023-03-06T03:33:00.836Z,92.32
2023-03-06T03:34:00.759Z,88.68
2023-03-06T03:35:00.768Z,85.05
2023-03-06T03:36:00.749Z,81.79
2023-03-06T03:37:00.723Z,79.14
2023-03-06T03:38:00.722Z,77.16
2023-03-06T03:39:00.709Z,75.41
2023-03-06T03:40:00.723Z,74.73
2023-03-06T03:41:00.704Z,76.24
2023-03-06T03:42:00.662Z,81.31
2023-03-06T03:43:00.678Z,83.76
2023-03-06T03:44:00.636Z,86.20
2023-03-06T03:45:00.625Z,87.56
2023-03-06T03:46:00.617Z,84.88
2023-03-06T03:47:00.598Z,81.63
2023-03-06T03:48:00.592Z,79.90
2023-03-06T03:49:00.585Z,80.60
2023-03-06T03:50:00.558Z,78.69
2023-03-06T03:51:00.556Z,75.89
2023-03-06T03:52:00.549Z,74.53
2023-03-06T03:53:00.538Z,72.64
2023-03-06T03:54:00.520Z,70.78
2023-03-06T03:55:00.505Z,69.77
2023-03-06T03:56:00.504Z,71.89
2023-03-06T03:57:00.486Z,78.61
2023-03-06T03:58:00.458Z,85.14
2023-03-06T03:59:00.455Z,89.35
2023-03-06T04:00:00.435Z,90.22
2023-03-06T04:01:00.461Z,89.83
2023-03-06T04:02:00.430Z,92.94
2023-03-06T04:03:00.396Z,93.15
2023-03-06T04:04:00.377Z,93.47
2023-03-06T04:05:00.425Z,89.44
2023-03-06T04:06:00.370Z,83.60
2023-03-06T04:07:00.357Z,79.44
2023-03-06T04:08:00.325Z,76.45
2023-03-06T04:09:00.324Z,73.21
2023-03-06T04:10:00.303Z,71.89
2023-03-06T04:11:00.290Z,69.71
2023-03-06T04:12:00.285Z,67.56
2023-03-06T04:13:00.276Z,65.74
2023-03-06T04:14:00.260Z,65.74
2023-03-06T04:15:00.257Z,65.38
2023-03-06T04:16:00.282Z,66.00
2023-03-06T04:17:00.231Z,66.91
2023-03-06T04:18:00.201Z,65.38
2023-03-06T04:19:00.220Z,65.38
2023-03-06T04:20:00.184Z,65.13
2023-03-06T04:21:00.161Z,64.52
2023-03-06T04:22:00.165Z,63.53
2023-03-06T04:23:00.157Z,61.19
2023-03-06T04:24:00.131Z,59.74
2023-03-06T04:25:00.127Z,61.38
2023-03-06T04:26:00.144Z,61.83
2023-03-06T04:27:00.178Z,60.70
2023-03-06T04:28:00.089Z,59.28
2023-03-06T04:29:00.092Z,60.18
2023-03-06T04:30:00.136Z,62.77
2023-03-06T04:31:00.048Z,66.06
2023-03-06T04:32:00.094Z,68.28
2023-03-06T04:33:00.024Z,70.07
2023-03-06T04:34:00.015Z,69.19
2023-03-06T04:35:00.024Z,67.34
2023-03-06T04:35:59.985Z,65.13
2023-03-06T04:36:59.980Z,63.29
2023-03-06T04:37:59.981Z,61.06
2023-03-06T04:39:00.036Z,59.02
2023-03-06T04:39:59.953Z,56.19
2023-03-06T04:40:59.932Z,53.89
2023-03-06T04:41:59.903Z,51.84
2023-03-06T04:42:59.890Z,50.25
2023-03-06T04:43:59.870Z,49.00
2023-03-06T04:44:59.878Z,48.21
2023-03-06T04:45:59.880Z,47.85
2023-03-06T04:46:59.869Z,47.14
2023-03-06T04:47:59.820Z,47.44
2023-03-06T04:48:59.819Z,47.17
2023-03-06T04:49:59.799Z,46.90
2023-03-06T04:50:59.782Z,46.80
2023-03-06T04:51:59.790Z,46.59
2023-03-06T04:52:59.780Z,46.54
2023-03-06T04:53:59.764Z,46.59
2023-03-06T04:54:59.732Z,50.55
2023-03-06T04:55:59.729Z,51.84
2023-03-06T04:56:59.726Z,50.86
2023-03-06T04:57:59.700Z,50.55
2023-03-06T04:58:59.737Z,52.14
2023-03-06T04:59:59.672Z,53.17
2023-03-06T05:00:59.659Z,51.59
2023-03-06T05:01:59.715Z,50.46
2023-03-06T05:02:59.647Z,49.76
2023-03-06T05:03:59.629Z,48.97
2023-03-06T05:04:59.613Z,48.01
2023-03-06T05:05:59.613Z,47.03
2023-03-06T05:06:59.579Z,46.49
2023-03-06T05:07:59.573Z,45.72
2023-03-06T05:08:59.595Z,45.22
2023-03-06T05:09:59.538Z,44.93
2023-03-06T05:10:59.540Z,44.54
2023-03-06T05:11:59.510Z,44.21
2023-03-06T05:12:59.514Z,44.31
2023-03-06T05:13:59.501Z,44.21
2023-03-06T05:14:59.472Z,44.07
2023-03-06T05:15:59.464Z,43.93
2023-03-06T05:16:59.487Z,43.84
2023-03-06T05:17:59.444Z,43.75
2023-03-06T05:18:59.439Z,43.84
2023-03-06T05:19:59.413Z,43.84
2023-03-06T05:20:59.407Z,43.93
2023-03-06T05:21:59.420Z,43.84
2023-03-06T05:22:59.388Z,43.89
2023-03-06T05:23:59.397Z,43.84
2023-03-06T05:24:59.353Z,43.84
2023-03-06T05:25:59.345Z,43.61
2023-03-06T05:26:59.342Z,43.84
2023-03-06T05:27:59.332Z,43.84
2023-03-06T05:28:59.314Z,43.70
2023-03-06T05:29:59.298Z,43.89
2023-03-06T05:31:00.670Z,44.45
2023-03-06T05:31:59.348Z,46.64
2023-03-06T05:32:59.256Z,48.32
2023-03-06T05:33:59.237Z,48.74
2023-03-06T05:34:59.255Z,47.71
2023-03-06T05:35:59.314Z,47.09
2023-03-06T05:36:59.224Z,46.90
2023-03-06T05:37:59.176Z,47.54
2023-03-06T05:38:59.200Z,47.85
2023-03-06T05:39:59.163Z,47.60
2023-03-06T05:40:59.164Z,47.25
2023-03-06T05:41:59.140Z,46.95
2023-03-06T05:42:59.132Z,46.54
2023-03-06T05:43:59.117Z,46.12
2023-03-06T05:44:59.102Z,46.17
2023-03-06T05:45:59.120Z,45.97
2023-03-06T05:46:59.092Z,46.07
2023-03-06T05:47:59.068Z,45.97
2023-03-06T05:48:59.078Z,46.07
2023-03-06T05:49:59.050Z,46.54
2023-03-06T05:50:59.035Z,49.17
2023-03-06T05:51:59.010Z,51.43
2023-03-06T05:52:59.001Z,51.43
2023-03-06T05:53:58.995Z,50.46
2023-03-06T05:54:59.009Z,50.12
2023-03-06T05:55:58.993Z,50.19
2023-03-06T05:56:58.971Z,49.53
2023-03-06T05:57:58.950Z,49.09
2023-03-06T05:58:58.937Z,48.54
2023-03-06T05:59:58.928Z,48.29
2023-03-06T06:00:58.907Z,47.90
2023-03-06T06:01:58.942Z,47.52
2023-03-06T06:02:58.909Z,46.98
2023-03-06T06:03:58.859Z,46.64
2023-03-06T06:04:58.854Z,46.43
2023-03-06T06:05:58.848Z,46.17
2023-03-06T06:06:58.836Z,46.07
2023-03-06T06:07:58.800Z,46.02
2023-03-06T06:08:58.823Z,46.02
2023-03-06T06:09:58.796Z,45.72
2023-03-06T06:10:58.764Z,45.57
2023-03-06T06:11:58.765Z,45.92
2023-03-06T06:12:58.770Z,45.77
2023-03-06T06:13:58.741Z,45.87
2023-03-06T06:14:58.730Z,45.67
2023-03-06T06:15:58.765Z,45.47
2023-03-06T06:16:58.698Z,45.62
2023-03-06T06:17:58.691Z,45.72
2023-03-06T06:18:58.698Z,46.07
2023-03-06T06:19:58.676Z,46.07
2023-03-06T06:20:58.652Z,46.17
2023-03-06T06:21:58.704Z,46.90
2023-03-06T06:22:58.622Z,47.33
2023-03-06T06:23:58.612Z,47.30
2023-03-06T06:24:58.600Z,47.06
2023-03-06T06:25:58.592Z,46.90
2023-03-06T06:26:58.579Z,46.85
2023-03-06T06:27:58.627Z,46.64
2023-03-06T06:29:00.222Z,46.38
2023-03-06T06:29:58.549Z,46.80
2023-03-06T06:30:58.560Z,46.85
2023-03-06T06:31:58.517Z,46.96
2023-03-06T06:32:58.496Z,46.90
2023-03-06T06:33:58.486Z,47.06
2023-03-06T06:34:58.517Z,46.64
2023-03-06T06:35:58.460Z,46.59
2023-03-06T06:36:58.451Z,46.43
2023-03-06T06:37:58.432Z,46.17
2023-03-06T06:38:58.421Z,46.07
2023-03-06T06:39:58.433Z,46.69
2023-03-06T06:41:29.136Z,51.14
2023-03-06T06:42:15.433Z,57.63
2023-03-06T06:42:58.396Z,60.09
2023-03-06T06:43:59.123Z,58.77
2023-03-06T06:44:58.552Z,61.60
2023-03-06T06:46:17.357Z,65.80
2023-03-06T06:47:22.004Z,64.12
2023-03-06T06:47:58.344Z,61.65
2023-03-06T06:48:58.313Z,59.28
2023-03-06T06:49:58.280Z,57.91
2023-03-06T06:50:58.265Z,57.00
2023-03-06T06:51:58.252Z,56.15
2023-03-06T06:52:58.251Z,55.62
2023-03-06T06:53:58.228Z,54.60
2023-03-06T06:54:58.209Z,54.28
2023-03-06T06:55:58.209Z,53.89
2023-03-06T06:56:58.188Z,55.15
2023-03-06T06:57:58.173Z,57.87
2023-03-06T06:59:13.947Z,63.24
2023-03-06T06:59:58.157Z,63.58
2023-03-06T07:00:58.144Z,65.54
2023-03-06T07:01:58.146Z,64.02
2023-03-06T07:02:58.107Z,63.34
2023-03-06T07:03:58.122Z,61.51
2023-03-06T07:05:04.047Z,63.24
2023-03-06T07:05:58.094Z,65.43
2023-03-06T07:06:58.086Z,65.95
2023-03-06T07:07:58.102Z,64.52
2023-03-06T07:08:58.044Z,68.06
2023-03-06T07:09:58.040Z,75.89
2023-03-06T07:10:58.017Z,74.26
2023-03-06T07:11:58.032Z,80.36
2023-03-06T07:12:58.012Z,85.75
2023-03-06T07:13:57.993Z,82.35
2023-03-06T07:14:57.965Z,81.47
2023-03-06T07:15:58.109Z,78.54
2023-03-06T07:16:57.938Z,74.46
2023-03-06T07:17:57.936Z,74.00
2023-03-06T07:18:57.931Z,77.95
2023-03-06T07:19:57.893Z,83.18
2023-03-06T07:20:59.818Z,79.82
2023-03-06T07:21:57.877Z,79.52
2023-03-06T07:22:57.869Z,83.01
2023-03-06T07:23:57.845Z,83.10
2023-03-06T07:24:57.877Z,83.10
2023-03-06T07:25:57.879Z,85.57
2023-03-06T07:26:57.807Z,81.95
2023-03-06T07:27:57.848Z,79.75
2023-03-06T07:28:57.778Z,79.44
2023-03-06T07:29:57.812Z,77.37
2023-03-06T07:30:57.821Z,77.66
2023-03-06T07:31:57.817Z,76.59
2023-03-06T07:32:57.750Z,73.02
2023-03-06T07:33:57.739Z,69.77
2023-03-06T07:35:13.728Z,78.99
2023-03-06T07:35:57.751Z,94.85
2023-03-06T07:36:57.692Z,104.62
2023-03-06T07:37:57.686Z,111.88
2023-03-06T07:38:57.669Z,125.66
2023-03-06T07:39:57.653Z,127.10
2023-03-06T07:40:57.634Z,129.28
2023-03-06T07:41:57.637Z,125.95
2023-03-06T07:43:09.133Z,131.63
2023-03-06T07:43:57.626Z,134.29
2023-03-06T07:44:57.593Z,138.66
2023-03-06T07:45:57.602Z,151.83
2023-03-06T07:46:57.640Z,162.99
2023-03-06T07:47:57.558Z,166.25
2023-03-06T07:48:57.533Z,164.12
2023-03-06T07:49:57.530Z,160.01
2023-03-06T07:50:57.510Z,168.44
2023-03-06T07:51:57.538Z,160.94
2023-03-06T07:52:57.486Z,174.27
2023-03-06T07:53:57.493Z,174.63
2023-03-06T07:54:57.470Z,172.10
2023-03-06T07:55:57.479Z,157.58
2023-03-06T07:56:57.466Z,157.43
2023-03-06T07:57:57.425Z,158.63
2023-03-06T07:58:57.414Z,156.69
2023-03-06T07:59:57.430Z,153.93
2023-03-06T08:00:57.405Z,154.36
2023-03-06T08:01:57.369Z,162.04
2023-03-06T08:02:57.427Z,154.79
2023-03-06T08:03:57.421Z,167.42
2023-03-06T08:04:57.335Z,167.09
2023-03-06T08:05:57.324Z,168.78
2023-03-06T08:06:57.329Z,153.08
2023-03-06T08:07:57.317Z,148.44
2023-03-06T08:08:57.290Z,152.66
2023-03-06T08:09:57.275Z,144.82
2023-03-06T08:10:57.255Z,135.05
2023-03-06T08:11:57.254Z,127.49
2023-03-06T08:12:57.239Z,133.86
2023-03-06T08:13:57.222Z,142.83
2023-03-06T08:14:57.238Z,141.85
2023-03-06T08:15:57.243Z,142.83
2023-03-06T08:16:57.205Z,132.57
2023-03-06T08:17:57.205Z,126.04
2023-03-06T08:18:57.161Z,133.96
2023-03-06T08:19:57.143Z,133.96
2023-03-06T08:20:57.130Z,134.62
2023-03-06T08:21:57.119Z,141.25
2023-03-06T08:22:57.109Z,143.20
2023-03-06T08:23:57.110Z,129.58
2023-03-06T08:24:57.082Z,124.44
2023-03-06T08:25:57.092Z,122.15
2023-03-06T08:26:57.055Z,128.48
2023-03-06T08:27:57.046Z,124.35
2023-03-06T08:28:57.043Z,116.50
2023-03-06T08:29:57.015Z,111.06
2023-03-06T08:30:57.028Z,105.89
2023-03-06T08:31:56.981Z,103.78
2023-03-06T08:32:56.974Z,105.02
2023-03-06T08:33:56.971Z,119.00
2023-03-06T08:34:56.954Z,133.64
2023-03-06T08:35:56.999Z,144.57
2023-03-06T08:36:56.952Z,145.58
2023-03-06T08:37:56.930Z,148.44
2023-03-06T08:38:56.908Z,149.24
2023-03-06T08:39:56.911Z,150.59
2023-03-06T08:40:56.874Z,158.48
2023-03-06T08:41:56.861Z,148.84
2023-03-06T08:42:56.871Z,132.15
2023-03-06T08:43:56.843Z,125.38
2023-03-06T08:44:56.824Z,133.43
2023-03-06T08:45:56.946Z,129.88
2023-03-06T08:46:56.795Z,131.42
2023-03-06T08:47:56.788Z,122.24
2023-03-06T08:48:56.811Z,114.65
2023-03-06T08:49:57.177Z,110.03
2023-03-06T08:50:56.750Z,119.18
2023-03-06T08:51:56.753Z,126.91
2023-03-06T08:52:56.735Z,135.49
2023-03-06T08:53:56.736Z,150.45
2023-03-06T08:54:56.716Z,160.94
2023-03-06T08:55:56.679Z,167.42
2023-03-06T08:56:56.679Z,179.15
2023-03-06T08:57:56.677Z,183.70
2023-03-06T08:58:56.656Z,185.55
2023-03-06T08:59:56.628Z,185.34
2023-03-06T09:00:56.730Z,180.51
2023-03-06T09:01:56.680Z,186.17
2023-03-06T09:02:56.612Z,185.75
2023-03-06T09:03:56.598Z,179.92
2023-03-06T09:04:56.589Z,168.78
2023-03-06T09:05:56.559Z,174.82
2023-03-06T09:06:56.547Z,166.75
2023-03-06T09:07:56.536Z,160.78
2023-03-06T09:08:56.535Z,140.77
2023-03-06T09:09:56.528Z,124.91
2023-03-06T09:10:56.514Z,113.33
2023-03-06T09:11:56.516Z,113.64
2023-03-06T09:12:56.465Z,119.69
2023-03-06T09:13:56.497Z,120.73
2023-03-06T09:14:56.475Z,112.71
2023-03-06T09:15:56.474Z,115.37
2023-03-06T09:16:56.492Z,128.58
2023-03-06T09:17:56.478Z,144.31
2023-03-06T09:18:56.400Z,142.83
2023-03-06T09:19:56.394Z,128.48
2023-03-06T09:20:56.387Z,114.81
2023-03-06T09:21:56.366Z,123.88
2023-03-06T09:22:56.338Z,145.07
2023-03-06T09:23:56.362Z,172.64
2023-03-06T09:24:56.335Z,187.79
2023-03-06T09:25:56.362Z,197.91
2023-03-06T09:26:56.288Z,193.34
2023-03-06T09:28:10.534Z,172.64
2023-03-06T09:28:56.281Z,159.85
2023-03-06T09:29:56.274Z,149.77
2023-03-06T09:30:56.393Z,149.10
2023-03-06T09:31:56.232Z,167.93
2023-03-06T09:32:56.217Z,185.45
2023-03-06T09:33:56.231Z,216.24
2023-03-06T09:34:56.196Z,203.32
2023-03-06T09:35:56.221Z,221.21
2023-03-06T09:36:57.674Z,227.05
2023-03-06T09:37:56.167Z,233.71
2023-03-06T09:38:56.157Z,231.88
2023-03-06T09:39:56.171Z,220.62
2023-03-06T09:40:56.120Z,249.97
2023-03-06T09:41:56.120Z,285.82
2023-03-06T09:42:56.100Z,303.32
2023-03-06T09:43:56.094Z,337.80
2023-03-06T09:44:56.059Z,353.51
2023-03-06T09:45:56.109Z,386.47
2023-03-06T09:46:56.050Z,360.13
2023-03-06T09:47:56.020Z,331.29
2023-03-06T09:48:56.014Z,329.29
2023-03-06T09:49:56.017Z,315.92
2023-03-06T09:50:56.315Z,270.22
2023-03-06T09:51:55.972Z,279.22
2023-03-06T09:52:55.968Z,336.41
2023-03-06T09:53:55.947Z,342.40
2023-03-06T09:54:55.935Z,399.00
2023-03-06T09:55:55.941Z,435.92
2023-03-06T09:56:55.918Z,464.24
2023-03-06T09:57:55.897Z,452.85
2023-03-06T09:58:55.900Z,411.61
2023-03-06T09:59:55.870Z,393.80
2023-03-06T10:00:55.881Z,362.92
2023-03-06T10:01:55.883Z,389.87
2023-03-06T10:02:55.896Z,438.51
2023-03-06T10:03:55.818Z,426.68
2023-03-06T10:04:55.866Z,406.82
2023-03-06T10:05:55.875Z,426.68
2023-03-06T10:06:55.786Z,456.90
2023-03-06T10:07:55.776Z,467.51
2023-03-06T10:08:55.749Z,473.51
2023-03-06T10:09:55.741Z,482.45
2023-03-06T10:10:55.743Z,418.61
2023-03-06T10:11:55.724Z,356.59
2023-03-06T10:12:55.698Z,335.03
2023-03-06T10:13:55.717Z,374.14
2023-03-06T10:14:55.677Z,396.62
2023-03-06T10:15:55.802Z,431.39
2023-03-06T10:16:55.665Z,439.96
2023-03-06T10:17:55.645Z,449.79
2023-03-06T10:18:55.618Z,471.49
2023-03-06T10:19:55.644Z,452.85
2023-03-06T10:20:55.624Z,494.67
2023-03-06T10:21:55.590Z,506.74
2023-03-06T10:23:01.347Z,487.76
2023-03-06T10:23:55.596Z,485.27
2023-03-06T10:24:55.554Z,504.43
2023-03-06T10:25:55.563Z,500.63
2023-03-06T10:26:55.731Z,544.09
2023-03-06T10:27:55.533Z,554.07
2023-03-06T10:28:55.495Z,558.27
2023-03-06T10:30:02.746Z,575.18
2023-03-06T10:30:55.591Z,586.87
2023-03-06T10:31:55.485Z,578.18
2023-03-06T10:32:55.490Z,600.66
2023-03-06T10:33:55.445Z,628.51
2023-03-06T10:34:55.439Z,640.63
2023-03-06T10:35:55.448Z,659.72
2023-03-06T10:36:55.397Z,672.40
2023-03-06T10:37:55.383Z,667.00
2023-03-06T10:38:55.381Z,594.22
2023-03-06T10:39:55.377Z,576.68
2023-03-06T10:40:55.354Z,587.39
2023-03-06T10:41:55.343Z,569.27
2023-03-06T10:43:09.593Z,601.75
2023-03-06T10:43:55.335Z,566.36
2023-03-06T10:44:55.308Z,589.47
2023-03-06T10:45:55.390Z,610.60
2023-03-06T10:46:55.285Z,638.17
2023-03-06T10:47:55.270Z,667.00
2023-03-06T10:48:55.259Z,665.67
2023-03-06T10:49:55.234Z,663.67
2023-03-06T10:50:55.235Z,578.69
2023-03-06T10:51:55.219Z,533.60
2023-03-06T10:53:01.692Z,553.61
2023-03-06T10:53:55.181Z,581.22
2023-03-06T10:54:55.180Z,587.91
2023-03-06T10:55:55.215Z,582.24
2023-03-06T10:56:55.345Z,538.36
2023-03-06T10:57:55.128Z,492.46
2023-03-06T10:58:55.160Z,496.14
2023-03-06T10:59:55.116Z,496.89
2023-03-06T11:00:55.103Z,495.03
2023-03-06T11:01:55.113Z,537.05
2023-03-06T11:02:55.082Z,559.68
2023-03-06T11:03:55.045Z,535.75
2023-03-06T11:04:55.122Z,502.52
2023-03-06T11:05:55.053Z,513.40
2023-03-06T11:06:55.038Z,521.46
2023-03-06T11:07:55.011Z,544.98
2023-03-06T11:08:54.988Z,478.97
2023-03-06T11:09:54.984Z,497.26
2023-03-06T11:10:54.968Z,549.04
2023-03-06T11:11:54.962Z,601.21
2023-03-06T11:12:54.948Z,634.51
2023-03-06T11:13:54.946Z,657.11
2023-03-06T11:14:54.908Z,643.11
2023-03-06T11:15:54.912Z,618.56
2023-03-06T11:16:54.904Z,655.81
2023-03-06T11:17:54.882Z,684.18
2023-03-06T11:18:54.858Z,694.91
2023-03-06T11:19:54.843Z,719.76
2023-03-06T11:20:54.846Z,730.84
2023-03-06T11:21:54.826Z,726.84
2023-03-06T11:22:54.850Z,727.64
2023-03-06T11:23:54.942Z,728.44
2023-03-06T11:24:54.807Z,725.26
2023-03-06T11:25:54.774Z,737.33
2023-03-06T11:26:54.768Z,726.84
2023-03-06T11:27:54.754Z,707.49
2023-03-06T11:28:54.813Z,680.67
2023-03-06T11:29:54.722Z,632.10
2023-03-06T11:30:54.707Z,610.04
2023-03-06T11:31:54.720Z,589.47
2023-03-06T11:32:54.689Z,576.18
2023-03-06T11:33:54.721Z,587.39
2023-03-06T11:34:54.698Z,582.24
2023-03-06T11:35:54.739Z,606.70
2023-03-06T11:36:54.633Z,615.70
2023-03-06T11:37:54.627Z,653.23
2023-03-06T11:38:54.609Z,680.67
2023-03-06T11:39:54.585Z,687.01
2023-03-06T11:40:54.584Z,704.49
2023-03-06T11:41:54.567Z,698.57
2023-03-06T11:42:54.560Z,703.00
2023-03-06T11:43:54.533Z,694.18
2023-03-06T11:44:54.538Z,697.83
2023-03-06T11:45:54.510Z,700.04
2023-03-06T11:46:54.670Z,679.97
2023-03-06T11:47:54.503Z,697.83
2023-03-06T11:48:54.485Z,713.57
2023-03-06T11:49:54.463Z,705.99
2023-03-06T11:50:54.443Z,664.34
2023-03-06T11:51:54.446Z,686.30
2023-03-06T11:52:54.489Z,689.14
2023-03-06T11:53:54.420Z,700.04
2023-03-06T11:54:54.390Z,687.01
2023-03-06T11:55:54.415Z,679.28
2023-03-06T11:56:54.374Z,626.14
2023-03-06T11:57:54.355Z,564.43
2023-03-06T11:58:54.369Z,560.15
2023-03-06T11:59:54.325Z,537.49
2023-03-06T12:00:54.324Z,584.80
2023-03-06T12:01:54.359Z,619.14
2023-03-06T12:02:54.307Z,622.04
2023-03-06T12:03:55.822Z,631.50
2023-03-06T12:04:54.320Z,637.56
2023-03-06T12:05:54.259Z,644.99
2023-03-06T12:06:54.254Z,663.67
2023-03-06T12:07:54.226Z,673.09
2023-03-06T12:08:54.254Z,679.28
2023-03-06T12:09:54.209Z,675.14
2023-03-06T12:10:54.195Z,665.67
2023-03-06T12:11:54.209Z,679.97
2023-03-06T12:12:54.194Z,663.67
2023-03-06T12:13:54.188Z,655.81
2023-03-06T12:14:54.175Z,632.10
2023-03-06T12:15:54.741Z,613.42
2023-03-06T12:16:54.162Z,559.68
2023-03-06T12:17:54.119Z,540.55
2023-03-06T12:18:54.126Z,529.77
2023-03-06T12:19:54.076Z,548.13
2023-03-06T12:20:54.105Z,588.95
2023-03-06T12:21:54.054Z,599.58
2023-03-06T12:22:57.906Z,600.66
2023-03-06T12:23:54.088Z,622.04
2023-03-06T12:24:54.029Z,633.30
2023-03-06T12:25:54.009Z,633.30
2023-03-06T12:26:54.007Z,641.25
2023-03-06T12:27:53.972Z,567.32
2023-03-06T12:28:53.959Z,592.10
2023-03-06T12:29:53.972Z,599.04
2023-03-06T12:30:53.936Z,615.70
2023-03-06T12:31:53.970Z,617.99
2023-03-06T12:32:53.917Z,566.36
2023-03-06T12:33:53.935Z,574.19
2023-03-06T12:34:54.238Z,537.05
2023-03-06T12:35:53.893Z,528.93
2023-03-06T12:36:53.875Z,533.60